Time,TemperatureF,DewpointF,PressureIn,WindDirection,WindDirectionDegrees,WindSpeedMPH,WindSpeedGustMPH,Humidity,HourlyPrecipIn,Conditions,Clouds,dailyrainin,SoftwareType,DateUTC
2013-02-16 00:03:00,7.4,4.8,30.31,WNW,288,0.0,17.0,89,0.00,,,0.00,Wunderground v.1.15,2013-02-16 06:03:00,
2013-02-16 00:05:00,7.3,4.7,30.31,WNW,288,0.0,17.0,89,0.00,,,0.00,Wunderground v.1.15,2013-02-16 06:05:00,
2013-02-16 00:08:00,7.2,4.6,30.31,WNW,288,0.0,17.0,89,0.00,,,0.00,Wunderground v.1.15,2013-02-16 06:08:00,
2013-02-16 00:12:00,7.0,4.4,30.31,WNW,288,0.0,0.0,89,0.00,,,0.00,Wunderground v.1.15,2013-02-16 06:12:00,
2013-02-16 00:14:00,6.9,4.3,30.31,WNW,288,0.0,0.0,89,0.00,,,0.00,Wunderground v.1.15,2013-02-16 06:14:00,
2013-02-16 00:16:00,6.9,4.6,30.31,WNW,288,0.0,0.0,90,0.00,,,0.00,Wunderground v.1.15,2013-02-16 06:16:00,
2013-02-16 00:20:00,7.0,4.7,30.31,WNW,285,0.0,0.0,90,0.00,,,0.00,Wunderground v.1.15,2013-02-16 06:20:00,
2013-02-16 00:22:00,7.0,4.7,30.31,West,262,0.0,0.0,90,0.00,,,0.00,Wunderground v.1.15,2013-02-16 06:22:00,
2013-02-16 00:25:00,7.0,4.7,30.31,West,266,0.0,0.0,90,0.00,,,0.00,Wunderground v.1.15,2013-02-16 06:25:00,
2013-02-16 00:28:00,7.0,4.7,30.31,West,266,0.0,0.0,90,0.00,,,0.00,Wunderground v.1.15,2013-02-16 06:28:00,
2013-02-16 00:34:00,7.1,4.8,30.31,West,271,0.0,1.0,90,0.00,,,0.00,Wunderground v.1.15,2013-02-16 06:34:00,
2013-02-16 00:38:00,7.1,4.8,30.31,West,263,1.0,1.0,90,0.00,,,0.00,Wunderground v.1.15,2013-02-16 06:38:00,
2013-02-16 00:40:00,7.1,4.8,30.31,West,263,1.0,1.0,90,0.00,,,0.00,Wunderground v.1.15,2013-02-16 06:40:00,
2013-02-16 00:42:00,7.0,4.7,30.31,West,263,1.0,1.0,90,0.00,,,0.00,Wunderground v.1.15,2013-02-16 06:42:00,
2013-02-16 00:48:00,6.9,4.6,30.31,West,263,0.0,1.0,90,0.00,,,0.00,Wunderground v.1.15,2013-02-16 06:48:00,
2013-02-16 00:51:00,6.9,4.6,30.31,WSW,257,1.0,1.0,90,0.00,,,0.00,Wunderground v.1.15,2013-02-16 06:51:00,
2013-02-16 00:53:00,6.9,4.6,30.31,WSW,256,1.0,1.0,90,0.00,,,0.00,Wunderground v.1.15,2013-02-16 06:53:00,
2013-02-16 00:58:00,7.0,4.9,30.31,WSW,257,1.0,1.0,91,0.00,,,0.00,Wunderground v.1.15,2013-02-16 06:58:00,
2013-02-16 01:02:00,7.0,4.9,30.30,WSW,257,1.0,2.0,91,0.00,,,0.00,Wunderground v.1.15,2013-02-16 07:02:00,
2013-02-16 01:04:00,6.9,4.6,30.30,WSW,257,1.0,2.0,90,0.00,,,0.00,Wunderground v.1.15,2013-02-16 07:04:00,
2013-02-16 01:06:00,6.9,4.6,30.30,WSW,257,1.0,2.0,90,0.00,,,0.00,Wunderground v.1.15,2013-02-16 07:06:00,
2013-02-16 01:08:00,6.8,4.5,30.30,WSW,257,0.0,2.0,90,0.00,,,0.00,Wunderground v.1.15,2013-02-16 07:08:00,
2013-02-16 01:10:00,6.8,4.5,30.30,WSW,257,0.0,2.0,90,0.00,,,0.00,Wunderground v.1.15,2013-02-16 07:10:00,
2013-02-16 01:11:00,6.7,4.4,30.30,WSW,257,0.0,2.0,90,0.00,,,0.00,Wunderground v.1.15,2013-02-16 07:11:00,
2013-02-16 01:16:00,6.7,4.6,30.30,WSW,257,0.0,2.0,91,0.00,,,0.00,Wunderground v.1.15,2013-02-16 07:16:00,
2013-02-16 01:18:00,6.6,4.3,30.29,WSW,257,0.0,2.0,90,0.00,,,0.00,Wunderground v.1.15,2013-02-16 07:18:00,
2013-02-16 01:22:00,6.6,4.5,30.29,WSW,256,0.0,2.0,91,0.00,,,0.00,Wunderground v.1.15,2013-02-16 07:22:00,
2013-02-16 01:24:00,6.6,4.5,30.29,WSW,256,0.0,2.0,91,0.00,,,0.00,Wunderground v.1.15,2013-02-16 07:24:00,
2013-02-16 01:26:00,6.7,4.6,30.29,WSW,249,0.0,2.0,91,0.00,,,0.00,Wunderground v.1.15,2013-02-16 07:26:00,
2013-02-16 01:28:00,6.8,5.0,30.29,WSW,249,0.0,2.0,92,0.00,,,0.00,Wunderground v.1.15,2013-02-16 07:28:00,
2013-02-16 01:32:00,6.9,5.1,30.29,WSW,251,1.0,2.0,92,0.00,,,0.00,Wunderground v.1.15,2013-02-16 07:32:00,
2013-02-16 01:33:00,6.9,4.8,30.29,WSW,252,1.0,2.0,91,0.00,,,0.00,Wunderground v.1.15,2013-02-16 07:33:00,
2013-02-16 01:35:00,6.8,4.7,30.29,WSW,246,1.0,2.0,91,0.00,,,0.00,Wunderground v.1.15,2013-02-16 07:35:00,
2013-02-16 01:42:00,6.9,4.8,30.29,WSW,245,1.0,2.0,91,0.00,,,0.00,Wunderground v.1.15,2013-02-16 07:42:00,
2013-02-16 01:48:00,6.6,4.5,30.29,WSW,245,0.0,2.0,91,0.00,,,0.00,Wunderground v.1.15,2013-02-16 07:48:00,
2013-02-16 01:50:00,6.5,4.4,30.29,WSW,246,0.0,2.0,91,0.00,,,0.00,Wunderground v.1.15,2013-02-16 07:50:00,
2013-02-16 01:52:00,6.4,4.3,30.28,WSW,246,0.0,2.0,91,0.00,,,0.00,Wunderground v.1.15,2013-02-16 07:52:00,
2013-02-16 01:54:00,6.3,4.2,30.29,WSW,248,0.0,2.0,91,0.00,,,0.00,Wunderground v.1.15,2013-02-16 07:54:00,
2013-02-16 02:00:00,6.4,4.3,30.28,WSW,248,1.0,2.0,91,0.00,,,0.00,Wunderground v.1.15,2013-02-16 08:00:00,
2013-02-16 02:02:00,6.4,4.3,30.28,WSW,246,1.0,2.0,91,0.00,,,0.00,Wunderground v.1.15,2013-02-16 08:02:00,
2013-02-16 02:06:00,6.3,4.2,30.28,WSW,250,1.0,2.0,91,0.00,,,0.00,Wunderground v.1.15,2013-02-16 08:06:00,
2013-02-16 02:08:00,6.3,4.2,30.28,West,259,1.0,2.0,91,0.00,,,0.00,Wunderground v.1.15,2013-02-16 08:08:00,
2013-02-16 02:12:00,6.2,4.1,30.29,WSW,255,2.0,2.0,91,0.00,,,0.00,Wunderground v.1.15,2013-02-16 08:12:00,
2013-02-16 02:15:00,6.1,4.0,30.28,West,259,2.0,2.0,91,0.00,,,0.00,Wunderground v.1.15,2013-02-16 08:15:00,
2013-02-16 02:17:00,6.1,4.0,30.28,West,264,1.0,2.0,91,0.00,,,0.00,Wunderground v.1.15,2013-02-16 08:17:00,
2013-02-16 02:20:00,6.1,4.0,30.28,West,264,1.0,2.0,91,0.00,,,0.00,Wunderground v.1.15,2013-02-16 08:20:00,
2013-02-16 02:24:00,6.0,3.9,30.28,West,264,0.0,2.0,91,0.00,,,0.00,Wunderground v.1.15,2013-02-16 08:24:00,
2013-02-16 02:26:00,6.0,3.9,30.28,West,263,0.0,2.0,91,0.00,,,0.00,Wunderground v.1.15,2013-02-16 08:26:00,
2013-02-16 02:30:00,6.2,4.1,30.28,West,262,1.0,2.0,91,0.00,,,0.00,Wunderground v.1.15,2013-02-16 08:30:00,
2013-02-16 02:36:00,6.6,4.8,30.28,West,259,1.0,2.0,92,0.00,,,0.00,Wunderground v.1.15,2013-02-16 08:36:00,
2013-02-16 02:37:00,6.7,4.9,30.28,WSW,253,2.0,2.0,92,0.00,,,0.00,Wunderground v.1.15,2013-02-16 08:37:00,
2013-02-16 02:42:00,6.9,4.8,30.28,West,263,2.0,2.0,91,0.00,,,0.00,Wunderground v.1.15,2013-02-16 08:42:00,
2013-02-16 02:44:00,6.8,4.7,30.27,West,271,2.0,2.0,91,0.00,,,0.00,Wunderground v.1.15,2013-02-16 08:44:00,
2013-02-16 02:48:00,6.7,4.6,30.27,West,276,1.0,2.0,91,0.00,,,0.00,Wunderground v.1.15,2013-02-16 08:48:00,
2013-02-16 02:50:00,6.8,4.7,30.27,West,271,1.0,2.0,91,0.00,,,0.00,Wunderground v.1.15,2013-02-16 08:50:00,
2013-02-16 02:54:00,6.7,4.6,30.27,West,262,1.0,2.0,91,0.00,,,0.00,Wunderground v.1.15,2013-02-16 08:54:00,
2013-02-16 02:56:00,6.7,4.6,30.27,West,260,1.0,2.0,91,0.00,,,0.00,Wunderground v.1.15,2013-02-16 08:56:00,
2013-02-16 02:59:00,6.7,4.6,30.27,WSW,253,1.0,2.0,91,0.00,,,0.00,Wunderground v.1.15,2013-02-16 08:59:00,
2013-02-16 03:01:00,6.6,4.5,30.27,WSW,254,1.0,2.0,91,0.00,,,0.00,Wunderground v.1.15,2013-02-16 09:01:00,
2013-02-16 03:08:00,6.3,4.0,30.27,WSW,255,0.0,2.0,90,0.00,,,0.00,Wunderground v.1.15,2013-02-16 09:08:00,
2013-02-16 03:10:00,6.2,3.9,30.27,WSW,255,0.0,2.0,90,0.00,,,0.00,Wunderground v.1.15,2013-02-16 09:10:00,
2013-02-16 03:12:00,6.1,3.8,30.26,WSW,252,0.0,2.0,90,0.00,,,0.00,Wunderground v.1.15,2013-02-16 09:12:00,
2013-02-16 03:16:00,6.1,4.0,30.26,WSW,248,1.0,2.0,91,0.00,,,0.00,Wunderground v.1.15,2013-02-16 09:16:00,
2013-02-16 03:18:00,6.2,4.1,30.26,WSW,252,1.0,2.0,91,0.00,,,0.00,Wunderground v.1.15,2013-02-16 09:18:00,
2013-02-16 03:24:00,6.2,4.1,30.26,WSW,251,1.0,2.0,91,0.00,,,0.00,Wunderground v.1.15,2013-02-16 09:24:00,
2013-02-16 03:28:00,6.2,4.1,30.25,WSW,248,1.0,2.0,91,0.00,,,0.00,Wunderground v.1.15,2013-02-16 09:28:00,
2013-02-16 03:34:00,7.0,5.4,30.25,WSW,241,1.0,3.0,93,0.00,,,0.00,Wunderground v.1.15,2013-02-16 09:34:00,
2013-02-16 03:36:00,7.2,5.6,30.25,WSW,253,2.0,3.0,93,0.00,,,0.00,Wunderground v.1.15,2013-02-16 09:36:00,
2013-02-16 03:41:00,7.9,6.3,30.25,WSW,239,3.0,3.0,93,0.00,,,0.00,Wunderground v.1.15,2013-02-16 09:41:00,
2013-02-16 03:46:00,8.1,6.5,30.25,SW,236,3.0,3.0,93,0.00,,,0.00,Wunderground v.1.15,2013-02-16 09:46:00,
2013-02-16 03:50:00,8.1,6.3,30.25,WSW,249,3.0,3.0,92,0.00,,,0.00,Wunderground v.1.15,2013-02-16 09:50:00,
2013-02-16 03:54:00,7.8,5.7,30.25,WSW,248,3.0,3.0,91,0.00,,,0.00,Wunderground v.1.15,2013-02-16 09:54:00,
2013-02-16 03:56:00,7.6,5.5,30.25,WSW,250,2.0,3.0,91,0.00,,,0.00,Wunderground v.1.15,2013-02-16 09:56:00,
2013-02-16 03:58:00,7.6,5.5,30.25,WSW,251,2.0,3.0,91,0.00,,,0.00,Wunderground v.1.15,2013-02-16 09:58:00,
2013-02-16 04:03:00,7.6,5.8,30.25,SW,224,2.0,2.0,92,0.00,,,0.00,Wunderground v.1.15,2013-02-16 10:03:00,
2013-02-16 04:10:00,7.6,5.5,30.25,SW,231,2.0,2.0,91,0.00,,,0.00,Wunderground v.1.15,2013-02-16 10:10:00,
2013-02-16 04:12:00,7.5,5.4,30.25,SW,218,2.0,2.0,91,0.00,,,0.00,Wunderground v.1.15,2013-02-16 10:12:00,
2013-02-16 04:18:00,7.5,5.7,30.25,SW,231,2.0,2.0,92,0.00,,,0.00,Wunderground v.1.15,2013-02-16 10:18:00,
2013-02-16 04:20:00,7.5,5.7,30.25,SW,236,2.0,2.0,92,0.00,,,0.00,Wunderground v.1.15,2013-02-16 10:20:00,
2013-02-16 04:23:00,7.4,5.3,30.25,SW,221,2.0,2.0,91,0.00,,,0.00,Wunderground v.1.15,2013-02-16 10:23:00,
2013-02-16 04:30:00,7.3,5.2,30.25,SW,229,2.0,2.0,91,0.00,,,0.00,Wunderground v.1.15,2013-02-16 10:30:00,
2013-02-16 04:36:00,7.3,5.2,30.25,SW,226,2.0,3.0,91,0.00,,,0.00,Wunderground v.1.15,2013-02-16 10:36:00,
2013-02-16 04:38:00,7.3,5.2,30.25,SW,226,2.0,3.0,91,0.00,,,0.00,Wunderground v.1.15,2013-02-16 10:38:00,
2013-02-16 04:42:00,7.2,5.1,30.25,SW,218,2.0,2.0,91,0.00,,,0.00,Wunderground v.1.15,2013-02-16 10:42:00,
2013-02-16 04:45:00,7.4,5.6,30.24,SW,219,2.0,2.0,92,0.00,,,0.00,Wunderground v.1.15,2013-02-16 10:45:00,
2013-02-16 04:47:00,7.4,5.3,30.24,SW,220,2.0,2.0,91,0.00,,,0.00,Wunderground v.1.15,2013-02-16 10:47:00,
2013-02-16 04:54:00,7.5,5.4,30.24,SSW,208,1.0,2.0,91,0.00,,,0.00,Wunderground v.1.15,2013-02-16 10:54:00,
2013-02-16 04:56:00,7.5,5.4,30.24,SW,217,1.0,2.0,91,0.00,,,0.00,Wunderground v.1.15,2013-02-16 10:56:00,
2013-02-16 04:58:00,7.5,5.4,30.24,SSW,210,1.0,2.0,91,0.00,,,0.00,Wunderground v.1.15,2013-02-16 10:58:00,
2013-02-16 05:04:00,7.3,5.2,30.24,SW,214,1.0,2.0,91,0.00,,,0.00,Wunderground v.1.15,2013-02-16 11:04:00,
2013-02-16 05:06:00,7.3,5.2,30.24,SW,217,1.0,2.0,91,0.00,,,0.00,Wunderground v.1.15,2013-02-16 11:06:00,
2013-02-16 05:07:00,7.2,5.1,30.24,SW,214,1.0,2.0,91,0.00,,,0.00,Wunderground v.1.15,2013-02-16 11:07:00,
2013-02-16 05:10:00,7.2,5.1,30.24,SW,215,1.0,2.0,91,0.00,,,0.00,Wunderground v.1.15,2013-02-16 11:10:00,
2013-02-16 05:14:00,7.2,5.1,30.24,SW,219,1.0,2.0,91,0.00,,,0.00,Wunderground v.1.15,2013-02-16 11:14:00,
2013-02-16 05:16:00,7.2,5.1,30.24,SW,221,1.0,2.0,91,0.00,,,0.00,Wunderground v.1.15,2013-02-16 11:16:00,
2013-02-16 05:18:00,7.1,5.0,30.24,SSW,212,1.0,2.0,91,0.00,,,0.00,Wunderground v.1.15,2013-02-16 11:18:00,
2013-02-16 05:22:00,7.1,5.0,30.23,SSW,213,1.0,2.0,91,0.00,,,0.00,Wunderground v.1.15,2013-02-16 11:22:00,
2013-02-16 05:26:00,7.1,5.0,30.24,SW,215,1.0,2.0,91,0.00,,,0.00,Wunderground v.1.15,2013-02-16 11:26:00,
2013-02-16 05:27:00,7.2,5.4,30.24,SSW,211,2.0,2.0,92,0.00,,,0.00,Wunderground v.1.15,2013-02-16 11:27:00,
2013-02-16 05:29:00,7.3,5.5,30.24,SW,219,2.0,2.0,92,0.00,,,0.00,Wunderground v.1.15,2013-02-16 11:29:00,
2013-02-16 05:32:00,7.3,5.5,30.23,SSW,201,2.0,2.0,92,0.00,,,0.00,Wunderground v.1.15,2013-02-16 11:32:00,
2013-02-16 05:34:00,7.3,5.2,30.24,SW,217,2.0,2.0,91,0.00,,,0.00,Wunderground v.1.15,2013-02-16 11:34:00,
2013-02-16 05:38:00,7.3,5.2,30.23,SSW,203,2.0,2.0,91,0.00,,,0.00,Wunderground v.1.15,2013-02-16 11:38:00,
2013-02-16 05:40:00,7.3,5.2,30.23,SW,222,2.0,2.0,91,0.00,,,0.00,Wunderground v.1.15,2013-02-16 11:40:00,
2013-02-16 05:44:00,7.3,5.2,30.23,SSW,198,2.0,2.0,91,0.00,,,0.00,Wunderground v.1.15,2013-02-16 11:44:00,
2013-02-16 05:46:00,7.3,5.2,30.23,SW,219,2.0,2.0,91,0.00,,,0.00,Wunderground v.1.15,2013-02-16 11:46:00,
2013-02-16 05:50:00,7.3,5.2,30.23,SW,229,2.0,2.0,91,0.00,,,0.00,Wunderground v.1.15,2013-02-16 11:50:00,
2013-02-16 05:54:00,7.3,5.2,30.23,SW,226,2.0,2.0,91,0.00,,,0.00,Wunderground v.1.15,2013-02-16 11:54:00,
2013-02-16 05:58:00,7.2,5.1,30.23,SW,215,2.0,2.0,91,0.00,,,0.00,Wunderground v.1.15,2013-02-16 11:58:00,
2013-02-16 06:00:00,7.1,5.0,30.23,SW,218,2.0,2.0,91,0.00,,,0.00,Wunderground v.1.15,2013-02-16 12:00:00,
2013-02-16 06:02:00,7.1,5.0,30.23,SW,224,2.0,2.0,91,0.00,,,0.00,Wunderground v.1.15,2013-02-16 12:02:00,
2013-02-16 06:04:00,7.1,5.0,30.23,SW,232,2.0,2.0,91,0.00,,,0.00,Wunderground v.1.15,2013-02-16 12:04:00,
2013-02-16 06:08:00,7.0,4.9,30.23,WSW,239,2.0,2.0,91,0.00,,,0.00,Wunderground v.1.15,2013-02-16 12:08:00,
2013-02-16 06:10:00,7.0,4.9,30.23,SW,231,1.0,2.0,91,0.00,,,0.00,Wunderground v.1.15,2013-02-16 12:10:00,
2013-02-16 06:12:00,7.0,4.9,30.23,WSW,246,1.0,2.0,91,0.00,,,0.00,Wunderground v.1.15,2013-02-16 12:12:00,
2013-02-16 06:14:00,7.0,4.9,30.23,SW,229,1.0,2.0,91,0.00,,,0.00,Wunderground v.1.15,2013-02-16 12:14:00,
2013-02-16 06:16:00,7.0,4.9,30.24,WSW,242,1.0,2.0,91,0.00,,,0.00,Wunderground v.1.15,2013-02-16 12:16:00,
2013-02-16 06:20:00,7.0,4.9,30.24,WSW,246,1.0,2.0,91,0.00,,,0.00,Wunderground v.1.15,2013-02-16 12:20:00,
2013-02-16 06:22:00,7.1,5.3,30.24,WSW,243,1.0,2.0,92,0.00,,,0.00,Wunderground v.1.15,2013-02-16 12:22:00,
2013-02-16 06:24:00,7.2,5.4,30.24,WSW,246,2.0,2.0,92,0.00,,,0.00,Wunderground v.1.15,2013-02-16 12:24:00,
2013-02-16 06:26:00,7.3,5.5,30.24,WSW,253,2.0,2.0,92,0.00,,,0.00,Wunderground v.1.15,2013-02-16 12:26:00,
2013-02-16 06:30:00,7.2,5.1,30.24,West,267,2.0,2.0,91,0.00,,,0.00,Wunderground v.1.15,2013-02-16 12:30:00,
2013-02-16 06:34:00,7.2,5.1,30.24,West,259,2.0,2.0,91,0.00,,,0.00,Wunderground v.1.15,2013-02-16 12:34:00,
2013-02-16 06:36:00,7.0,4.9,30.24,WSW,257,1.0,2.0,91,0.00,,,0.00,Wunderground v.1.15,2013-02-16 12:36:00,
2013-02-16 06:42:00,6.7,4.4,30.23,West,259,1.0,2.0,90,0.00,,,0.00,Wunderground v.1.15,2013-02-16 12:42:00,
2013-02-16 06:44:00,6.7,4.6,30.23,WSW,249,0.0,2.0,91,0.00,,,0.00,Wunderground v.1.15,2013-02-16 12:44:00,
2013-02-16 06:46:00,6.6,4.5,30.23,WSW,243,0.0,2.0,91,0.00,,,0.00,Wunderground v.1.15,2013-02-16 12:46:00,
2013-02-16 06:48:00,6.7,4.6,30.23,West,262,1.0,2.0,91,0.00,,,0.00,Wunderground v.1.15,2013-02-16 12:48:00,
2013-02-16 06:54:00,6.4,4.3,30.23,WSW,257,1.0,2.0,91,0.00,,,0.00,Wunderground v.1.15,2013-02-16 12:54:00,
2013-02-16 06:56:00,6.2,3.9,30.23,WSW,257,1.0,2.0,90,0.00,,,0.00,Wunderground v.1.15,2013-02-16 12:56:00,
2013-02-16 06:58:00,5.9,3.6,30.23,WSW,257,1.0,2.0,90,0.00,,,0.00,Wunderground v.1.15,2013-02-16 12:58:00,
2013-02-16 07:00:00,5.7,3.4,30.23,WSW,257,0.0,2.0,90,0.00,,,0.00,Wunderground v.1.15,2013-02-16 13:00:00,
2013-02-16 07:02:00,5.5,3.0,30.23,WSW,257,0.0,2.0,89,0.00,,,0.00,Wunderground v.1.15,2013-02-16 13:02:00,
2013-02-16 07:08:00,5.1,2.8,30.23,WSW,257,0.0,2.0,90,0.00,,,0.00,Wunderground v.1.15,2013-02-16 13:08:00,
2013-02-16 07:10:00,4.9,2.6,30.24,WSW,257,0.0,2.0,90,0.00,,,0.00,Wunderground v.1.15,2013-02-16 13:10:00,
2013-02-16 07:12:00,4.7,2.2,30.23,WSW,257,0.0,2.0,89,0.00,,,0.00,Wunderground v.1.15,2013-02-16 13:12:00,
2013-02-16 07:16:00,4.8,2.8,30.23,WSW,258,0.0,2.0,91,0.00,,,0.00,Wunderground v.1.15,2013-02-16 13:16:00,
2013-02-16 07:18:00,5.2,3.4,30.23,WSW,257,0.0,2.0,92,0.00,,,0.00,Wunderground v.1.15,2013-02-16 13:18:00,
2013-02-16 07:24:00,5.4,3.3,30.23,WSW,257,0.0,2.0,91,0.00,,,0.00,Wunderground v.1.15,2013-02-16 13:24:00,
2013-02-16 07:30:00,5.3,3.2,30.22,WSW,257,0.0,2.0,91,0.00,,,0.00,Wunderground v.1.15,2013-02-16 13:30:00,
2013-02-16 07:32:00,5.4,3.3,30.22,WSW,257,0.0,2.0,91,0.00,,,0.00,Wunderground v.1.15,2013-02-16 13:32:00,
2013-02-16 07:34:00,5.4,3.3,30.23,WSW,257,0.0,2.0,91,0.00,,,0.00,Wunderground v.1.15,2013-02-16 13:34:00,
2013-02-16 07:36:00,5.4,3.3,30.22,WSW,257,0.0,2.0,91,0.00,,,0.00,Wunderground v.1.15,2013-02-16 13:36:00,
2013-02-16 07:38:00,5.5,3.4,30.22,WSW,257,0.0,2.0,91,0.00,,,0.00,Wunderground v.1.15,2013-02-16 13:38:00,
2013-02-16 07:40:00,5.6,3.5,30.22,WSW,257,0.0,2.0,91,0.00,,,0.00,Wunderground v.1.15,2013-02-16 13:40:00,
2013-02-16 07:42:00,5.7,3.6,30.22,WSW,257,0.0,2.0,91,0.00,,,0.00,Wunderground v.1.15,2013-02-16 13:42:00,
2013-02-16 07:46:00,5.9,3.8,30.22,WSW,257,0.0,2.0,91,0.00,,,0.00,Wunderground v.1.15,2013-02-16 13:46:00,
2013-02-16 07:48:00,6.0,3.9,30.22,WSW,257,0.0,2.0,91,0.00,,,0.00,Wunderground v.1.15,2013-02-16 13:48:00,
2013-02-16 07:50:00,5.9,3.8,30.22,WSW,257,0.0,2.0,91,0.00,,,0.00,Wunderground v.1.15,2013-02-16 13:50:00,
2013-02-16 07:52:00,6.0,3.9,30.22,WSW,257,0.0,2.0,91,0.00,,,0.00,Wunderground v.1.15,2013-02-16 13:52:00,
2013-02-16 07:54:00,6.1,4.0,30.22,WSW,258,0.0,2.0,91,0.00,,,0.00,Wunderground v.1.15,2013-02-16 13:54:00,
2013-02-16 07:58:00,6.4,4.6,30.22,WSW,257,0.0,2.0,92,0.00,,,0.00,Wunderground v.1.15,2013-02-16 13:58:00,
2013-02-16 08:00:00,6.5,4.7,30.22,WSW,257,0.0,2.0,92,0.00,,,0.00,Wunderground v.1.15,2013-02-16 14:00:00,
2013-02-16 08:02:00,6.6,4.8,30.22,WSW,257,0.0,2.0,92,0.00,,,0.00,Wunderground v.1.15,2013-02-16 14:02:00,
2013-02-16 08:04:00,6.7,4.9,30.22,WSW,257,0.0,2.0,92,0.00,,,0.00,Wunderground v.1.15,2013-02-16 14:04:00,
2013-02-16 08:06:00,6.9,5.1,30.22,WSW,257,0.0,2.0,92,0.00,,,0.00,Wunderground v.1.15,2013-02-16 14:06:00,
2013-02-16 08:12:00,7.9,6.5,30.22,WNW,298,0.0,2.0,94,0.00,,,0.00,Wunderground v.1.15,2013-02-16 14:12:00,
2013-02-16 08:14:00,8.3,6.9,30.21,WNW,298,0.0,2.0,94,0.00,,,0.00,Wunderground v.1.15,2013-02-16 14:14:00,
2013-02-16 08:18:00,8.9,7.5,30.22,WNW,298,0.0,2.0,94,0.00,,,0.00,Wunderground v.1.15,2013-02-16 14:18:00,
2013-02-16 08:22:00,9.4,8.0,30.22,WNW,298,0.0,2.0,94,0.00,,,0.00,Wunderground v.1.15,2013-02-16 14:22:00,
2013-02-16 08:24:00,9.5,8.1,30.22,WNW,298,0.0,2.0,94,0.00,,,0.00,Wunderground v.1.15,2013-02-16 14:24:00,
2013-02-16 08:26:00,9.7,8.1,30.22,WNW,298,0.0,2.0,93,0.00,,,0.00,Wunderground v.1.15,2013-02-16 14:26:00,
2013-02-16 08:30:00,10.1,8.5,30.22,WNW,298,0.0,2.0,93,0.00,,,0.00,Wunderground v.1.15,2013-02-16 14:30:00,
2013-02-16 08:34:00,10.4,8.8,30.21,WNW,298,0.0,2.0,93,0.00,,,0.00,Wunderground v.1.15,2013-02-16 14:34:00,
2013-02-16 08:36:00,10.6,9.0,30.21,WNW,298,0.0,2.0,93,0.00,,,0.00,Wunderground v.1.15,2013-02-16 14:36:00,
2013-02-16 08:40:00,11.1,9.7,30.21,WNW,298,0.0,2.0,94,0.00,,,0.00,Wunderground v.1.15,2013-02-16 14:40:00,
2013-02-16 08:42:00,11.5,10.1,30.21,SW,221,0.0,2.0,94,0.00,,,0.00,Wunderground v.1.15,2013-02-16 14:42:00,
2013-02-16 08:46:00,12.4,11.2,30.21,SE,137,0.0,2.0,95,0.00,,,0.00,Wunderground v.1.15,2013-02-16 14:46:00,
2013-02-16 08:50:00,12.8,11.4,30.21,SE,139,0.0,2.0,94,0.00,,,0.00,Wunderground v.1.15,2013-02-16 14:50:00,
2013-02-16 08:56:00,13.2,11.6,30.21,SSE,162,0.0,2.0,93,0.00,,,0.00,Wunderground v.1.15,2013-02-16 14:56:00,
2013-02-16 08:58:00,13.3,11.7,30.21,SSE,161,0.0,2.0,93,0.00,,,0.00,Wunderground v.1.15,2013-02-16 14:58:00,
2013-02-16 09:02:00,13.7,12.1,30.20,SE,136,0.0,2.0,93,0.00,,,0.00,Wunderground v.1.15,2013-02-16 15:02:00,
2013-02-16 09:04:00,13.9,12.3,30.21,SSE,150,0.0,2.0,93,0.00,,,0.00,Wunderground v.1.15,2013-02-16 15:04:00,
2013-02-16 09:06:00,13.9,12.3,30.20,ENE,60,0.0,2.0,93,0.00,,,0.00,Wunderground v.1.15,2013-02-16 15:06:00,
2013-02-16 09:10:00,13.6,11.7,30.20,East,98,0.0,2.0,92,0.00,,,0.00,Wunderground v.1.15,2013-02-16 15:10:00,
2013-02-16 09:14:00,13.4,11.5,30.20,SE,141,0.0,2.0,92,0.00,,,0.00,Wunderground v.1.15,2013-02-16 15:14:00,
2013-02-16 09:16:00,13.5,11.6,30.20,SE,139,0.0,2.0,92,0.00,,,0.00,Wunderground v.1.15,2013-02-16 15:16:00,
2013-02-16 09:22:00,13.5,11.6,30.20,NE,52,0.0,2.0,92,0.00,,,0.00,Wunderground v.1.15,2013-02-16 15:22:00,
2013-02-16 09:24:00,13.4,11.5,30.20,East,100,0.0,2.0,92,0.00,,,0.00,Wunderground v.1.15,2013-02-16 15:24:00,
2013-02-16 09:28:00,13.3,11.4,30.20,ENE,68,1.0,2.0,92,0.00,,,0.00,Wunderground v.1.15,2013-02-16 15:28:00,
2013-02-16 09:30:00,13.4,11.5,30.20,ENE,68,1.0,1.0,92,0.00,,,0.00,Wunderground v.1.15,2013-02-16 15:30:00,
2013-02-16 09:32:00,13.4,11.5,30.20,NE,43,1.0,2.0,92,0.00,,,0.00,Wunderground v.1.15,2013-02-16 15:32:00,
2013-02-16 09:36:00,13.6,11.7,30.19,East,80,1.0,2.0,92,0.00,,,0.00,Wunderground v.1.15,2013-02-16 15:36:00,
2013-02-16 09:38:00,13.6,12.0,30.19,NE,56,1.0,2.0,93,0.00,,,0.00,Wunderground v.1.15,2013-02-16 15:38:00,
2013-02-16 09:40:00,13.7,12.1,30.19,ENE,68,1.0,2.0,93,0.00,,,0.00,Wunderground v.1.15,2013-02-16 15:40:00,
2013-02-16 09:44:00,14.0,12.3,30.19,East,79,1.0,2.0,93,0.00,,,0.00,Wunderground v.1.15,2013-02-16 15:44:00,
2013-02-16 09:46:00,14.2,12.5,30.19,ENE,63,1.0,2.0,93,0.00,,,0.00,Wunderground v.1.15,2013-02-16 15:46:00,
2013-02-16 09:48:00,14.5,12.8,30.19,NNE,18,1.0,2.0,93,0.00,,,0.00,Wunderground v.1.15,2013-02-16 15:48:00,
2013-02-16 09:50:00,14.7,13.3,30.19,ENE,74,0.0,2.0,94,0.00,,,0.00,Wunderground v.1.15,2013-02-16 15:50:00,
2013-02-16 09:52:00,14.8,13.1,30.19,SE,136,1.0,2.0,93,0.00,,,0.00,Wunderground v.1.15,2013-02-16 15:52:00,
2013-02-16 09:56:00,15.1,13.4,30.19,East,91,1.0,2.0,93,0.00,,,0.00,Wunderground v.1.15,2013-02-16 15:56:00,
2013-02-16 09:58:00,15.4,14.0,30.19,ENE,60,1.0,2.0,94,0.00,,,0.00,Wunderground v.1.15,2013-02-16 15:58:00,
2013-02-16 10:00:00,15.5,13.8,30.19,East,84,1.0,2.0,93,0.00,,,0.00,Wunderground v.1.15,2013-02-16 16:00:00,
2013-02-16 10:04:00,15.5,13.8,30.19,ENE,60,1.0,2.0,93,0.00,,,0.00,Wunderground v.1.15,2013-02-16 16:04:00,
2013-02-16 10:06:00,15.7,14.0,30.19,East,84,1.0,2.0,93,0.00,,,0.00,Wunderground v.1.15,2013-02-16 16:06:00,
2013-02-16 10:10:00,16.0,14.3,30.19,East,84,1.0,2.0,93,0.00,,,0.00,Wunderground v.1.15,2013-02-16 16:10:00,
2013-02-16 10:12:00,15.9,14.2,30.19,ENE,63,1.0,2.0,93,0.00,,,0.00,Wunderground v.1.15,2013-02-16 16:12:00,
2013-02-16 10:16:00,16.1,14.4,30.19,NE,49,1.0,2.0,93,0.00,,,0.00,Wunderground v.1.15,2013-02-16 16:16:00,
2013-02-16 10:18:00,16.5,14.8,30.19,ESE,108,1.0,2.0,93,0.00,,,0.00,Wunderground v.1.15,2013-02-16 16:18:00,
2013-02-16 10:22:00,17.3,15.9,30.19,South,170,1.0,2.0,94,0.00,,,0.00,Wunderground v.1.15,2013-02-16 16:22:00,
2013-02-16 10:24:00,17.7,16.3,30.19,WNW,296,1.0,2.0,94,0.00,,,0.00,Wunderground v.1.15,2013-02-16 16:24:00,
2013-02-16 10:26:00,17.9,16.5,30.19,SSE,152,1.0,2.0,94,0.00,,,0.00,Wunderground v.1.15,2013-02-16 16:26:00,
2013-02-16 10:28:00,18.1,16.4,30.19,East,94,1.0,2.0,93,0.00,,,0.00,Wunderground v.1.15,2013-02-16 16:28:00,
2013-02-16 10:30:00,18.3,16.6,30.19,SE,141,1.0,1.0,93,0.00,,,0.00,Wunderground v.1.15,2013-02-16 16:30:00,
2013-02-16 10:32:00,18.5,16.8,30.19,SSW,210,1.0,2.0,93,0.00,,,0.00,Wunderground v.1.15,2013-02-16 16:32:00,
2013-02-16 10:36:00,18.8,17.1,30.19,NNE,27,1.0,2.0,93,0.00,,,0.00,Wunderground v.1.15,2013-02-16 16:36:00,
2013-02-16 10:38:00,18.9,17.0,30.19,SE,139,1.0,3.0,92,0.00,,,0.00,Wunderground v.1.15,2013-02-16 16:38:00,
2013-02-16 10:40:00,18.8,16.9,30.19,SE,143,1.0,3.0,92,0.00,,,0.00,Wunderground v.1.15,2013-02-16 16:40:00,
2013-02-16 10:44:00,18.7,16.5,30.19,SSE,149,2.0,3.0,91,0.00,,,0.00,Wunderground v.1.15,2013-02-16 16:44:00,
2013-02-16 10:48:00,19.0,17.1,30.18,SE,131,3.0,3.0,92,0.00,,,0.00,Wunderground v.1.15,2013-02-16 16:48:00,
2013-02-16 10:50:00,19.1,16.9,30.18,SSE,165,3.0,3.0,91,0.00,,,0.00,Wunderground v.1.15,2013-02-16 16:50:00,
2013-02-16 10:52:00,19.2,17.0,30.18,SSE,152,2.0,3.0,91,0.00,,,0.00,Wunderground v.1.15,2013-02-16 16:52:00,
2013-02-16 10:56:00,19.3,17.1,30.18,SE,135,2.0,3.0,91,0.00,,,0.00,Wunderground v.1.15,2013-02-16 16:56:00,
2013-02-16 10:58:00,19.4,17.2,30.18,South,171,3.0,3.0,91,0.00,,,0.00,Wunderground v.1.15,2013-02-16 16:58:00,
2013-02-16 11:04:00,19.9,17.7,30.17,SSE,152,3.0,3.0,91,0.00,,,0.00,Wunderground v.1.15,2013-02-16 17:04:00,
2013-02-16 11:06:00,20.1,17.9,30.17,SE,136,3.0,3.0,91,0.00,,,0.00,Wunderground v.1.15,2013-02-16 17:06:00,
2013-02-16 11:10:00,20.2,17.7,30.17,SSE,158,3.0,3.0,90,0.00,,,0.00,Wunderground v.1.15,2013-02-16 17:10:00,
2013-02-16 11:12:00,20.2,17.7,30.17,SSE,150,3.0,3.0,90,0.00,,,0.00,Wunderground v.1.15,2013-02-16 17:12:00,
2013-02-16 11:14:00,20.4,17.9,30.17,South,177,3.0,3.0,90,0.00,,,0.00,Wunderground v.1.15,2013-02-16 17:14:00,
2013-02-16 11:18:00,20.7,18.2,30.17,SE,135,2.0,4.0,90,0.00,,,0.00,Wunderground v.1.15,2013-02-16 17:18:00,
2013-02-16 11:20:00,20.9,18.4,30.17,SSE,150,3.0,3.0,90,0.00,,,0.00,Wunderground v.1.15,2013-02-16 17:20:00,
2013-02-16 11:24:00,21.5,19.0,30.17,SE,141,3.0,3.0,90,0.00,,,0.00,Wunderground v.1.15,2013-02-16 17:24:00,
2013-02-16 11:26:00,21.6,18.9,30.17,SE,142,3.0,3.0,89,0.00,,,0.00,Wunderground v.1.15,2013-02-16 17:26:00,
2013-02-16 11:28:00,21.8,18.8,30.17,SE,125,3.0,3.0,88,0.00,,,0.00,Wunderground v.1.15,2013-02-16 17:28:00,
2013-02-16 11:32:00,22.1,19.1,30.16,SE,134,3.0,4.0,88,0.00,,,0.00,Wunderground v.1.15,2013-02-16 17:32:00,
2013-02-16 11:34:00,22.2,19.2,30.16,SSE,149,4.0,4.0,88,0.00,,,0.00,Wunderground v.1.15,2013-02-16 17:34:00,
2013-02-16 11:36:00,22.3,19.3,30.16,SE,141,4.0,4.0,88,0.00,,,0.00,Wunderground v.1.15,2013-02-16 17:36:00,
2013-02-16 11:40:00,22.4,19.1,30.16,SE,142,3.0,4.0,87,0.00,,,0.00,Wunderground v.1.15,2013-02-16 17:40:00,
2013-02-16 11:44:00,22.7,19.4,30.16,SE,141,3.0,4.0,87,0.00,,,0.00,Wunderground v.1.15,2013-02-16 17:44:00,
2013-02-16 11:46:00,22.9,19.6,30.16,SSE,165,3.0,4.0,87,0.00,,,0.00,Wunderground v.1.15,2013-02-16 17:46:00,
2013-02-16 11:48:00,23.0,19.7,30.16,SE,142,3.0,4.0,87,0.00,,,0.00,Wunderground v.1.15,2013-02-16 17:48:00,
2013-02-16 11:50:00,23.1,19.5,30.16,SE,135,3.0,4.0,86,0.00,,,0.00,Wunderground v.1.15,2013-02-16 17:50:00,
2013-02-16 11:52:00,23.1,19.5,30.16,SE,139,3.0,4.0,86,0.00,,,0.00,Wunderground v.1.15,2013-02-16 17:52:00,
2013-02-16 11:58:00,23.4,20.1,30.16,SE,143,4.0,4.0,87,0.00,,,0.00,Wunderground v.1.15,2013-02-16 17:58:00,
2013-02-16 12:04:00,24.1,20.5,30.15,SE,136,3.0,3.0,86,0.00,,,0.00,Wunderground v.1.15,2013-02-16 18:04:00,
2013-02-16 12:06:00,24.4,20.5,30.15,SE,131,3.0,3.0,85,0.00,,,0.00,Wunderground v.1.15,2013-02-16 18:06:00,
2013-02-16 12:10:00,24.8,19.8,30.15,SSE,167,3.0,4.0,81,0.00,,,0.00,Wunderground v.1.15,2013-02-16 18:10:00,
2013-02-16 12:12:00,25.0,19.7,30.15,SSE,167,3.0,5.0,80,0.00,,,0.00,Wunderground v.1.15,2013-02-16 18:12:00,
2013-02-16 12:14:00,25.3,19.7,30.15,SE,146,3.0,5.0,79,0.00,,,0.00,Wunderground v.1.15,2013-02-16 18:14:00,
2013-02-16 12:16:00,25.5,19.6,30.15,SW,214,4.0,5.0,78,0.00,,,0.00,Wunderground v.1.15,2013-02-16 18:16:00,
2013-02-16 12:20:00,25.9,20.0,30.15,SSE,162,4.0,5.0,78,0.00,,,0.00,Wunderground v.1.15,2013-02-16 18:20:00,
2013-02-16 12:22:00,26.1,19.9,30.15,SSE,152,4.0,5.0,77,0.00,,,0.00,Wunderground v.1.15,2013-02-16 18:22:00,
2013-02-16 12:26:00,26.3,20.1,30.15,SSE,148,4.0,5.0,77,0.00,,,0.00,Wunderground v.1.15,2013-02-16 18:26:00,
2013-02-16 12:28:00,26.3,19.8,30.14,SE,135,4.0,5.0,76,0.00,,,0.00,Wunderground v.1.15,2013-02-16 18:28:00,
2013-02-16 12:32:00,26.4,19.9,30.14,SE,143,3.0,4.0,76,0.00,,,0.00,Wunderground v.1.15,2013-02-16 18:32:00,
2013-02-16 12:34:00,26.6,20.1,30.14,SE,135,3.0,4.0,76,0.00,,,0.00,Wunderground v.1.15,2013-02-16 18:34:00,
2013-02-16 12:36:00,26.9,20.7,30.14,SE,135,3.0,4.0,77,0.00,,,0.00,Wunderground v.1.15,2013-02-16 18:36:00,
2013-02-16 12:40:00,27.1,20.2,30.14,SSE,152,3.0,3.0,75,0.00,,,0.00,Wunderground v.1.15,2013-02-16 18:40:00,
2013-02-16 12:42:00,27.3,20.7,30.14,SSE,166,3.0,4.0,76,0.00,,,0.00,Wunderground v.1.15,2013-02-16 18:42:00,
2013-02-16 12:44:00,27.3,20.1,30.14,SE,134,3.0,4.0,74,0.00,,,0.00,Wunderground v.1.15,2013-02-16 18:44:00,
2013-02-16 12:48:00,27.3,20.4,30.14,SSE,152,3.0,4.0,75,0.00,,,0.00,Wunderground v.1.15,2013-02-16 18:48:00,
2013-02-16 12:50:00,27.5,20.6,30.14,SE,127,3.0,3.0,75,0.00,,,0.00,Wunderground v.1.15,2013-02-16 18:50:00,
2013-02-16 12:52:00,27.6,20.7,30.13,SSE,156,3.0,3.0,75,0.00,,,0.00,Wunderground v.1.15,2013-02-16 18:52:00,
2013-02-16 12:54:00,27.8,21.2,30.13,South,179,3.0,3.0,76,0.00,,,0.00,Wunderground v.1.15,2013-02-16 18:54:00,
2013-02-16 12:58:00,28.0,21.1,30.13,SSE,163,3.0,5.0,75,0.00,,,0.00,Wunderground v.1.15,2013-02-16 18:58:00,
2013-02-16 13:00:00,28.1,21.2,30.13,SSE,152,3.0,3.0,75,0.00,,,0.00,Wunderground v.1.15,2013-02-16 19:00:00,
2013-02-16 13:02:00,28.3,21.4,30.13,SE,128,3.0,5.0,75,0.00,,,0.00,Wunderground v.1.15,2013-02-16 19:02:00,
2013-02-16 13:06:00,28.5,20.9,30.13,SE,126,2.0,5.0,73,0.00,,,0.00,Wunderground v.1.15,2013-02-16 19:06:00,
2013-02-16 13:08:00,28.5,20.9,30.13,ESE,118,2.0,5.0,73,0.00,,,0.00,Wunderground v.1.15,2013-02-16 19:08:00,
2013-02-16 13:14:00,28.7,21.1,30.13,South,186,2.0,5.0,73,0.00,,,0.00,Wunderground v.1.15,2013-02-16 19:14:00,
2013-02-16 13:16:00,29.0,21.4,30.13,SW,215,3.0,5.0,73,0.00,,,0.00,Wunderground v.1.15,2013-02-16 19:16:00,
2013-02-16 13:20:00,29.2,21.6,30.13,SE,146,2.0,5.0,73,0.00,,,0.00,Wunderground v.1.15,2013-02-16 19:20:00,
2013-02-16 13:22:00,29.3,21.4,30.13,SE,132,2.0,5.0,72,0.00,,,0.00,Wunderground v.1.15,2013-02-16 19:22:00,
2013-02-16 13:24:00,29.4,21.8,30.12,SSE,162,3.0,5.0,73,0.00,,,0.00,Wunderground v.1.15,2013-02-16 19:24:00,
2013-02-16 13:26:00,29.5,21.6,30.12,SSE,158,3.0,5.0,72,0.00,,,0.00,Wunderground v.1.15,2013-02-16 19:26:00,
2013-02-16 13:30:00,29.6,21.3,30.12,SW,228,3.0,5.0,71,0.00,,,0.00,Wunderground v.1.15,2013-02-16 19:30:00,
2013-02-16 13:32:00,29.6,21.3,30.12,SW,228,3.0,5.0,71,0.00,,,0.00,Wunderground v.1.15,2013-02-16 19:32:00,
2013-02-16 13:36:00,29.7,21.1,30.12,SSE,148,3.0,5.0,70,0.00,,,0.00,Wunderground v.1.15,2013-02-16 19:36:00,
2013-02-16 13:38:00,29.9,21.3,30.11,SE,146,2.0,5.0,70,0.00,,,0.00,Wunderground v.1.15,2013-02-16 19:38:00,
2013-02-16 13:40:00,30.1,21.5,30.11,ENE,59,2.0,2.0,70,0.00,,,0.00,Wunderground v.1.15,2013-02-16 19:40:00,
2013-02-16 13:42:00,30.3,21.7,30.11,SSE,165,2.0,3.0,70,0.00,,,0.00,Wunderground v.1.15,2013-02-16 19:42:00,
2013-02-16 13:44:00,30.4,21.8,30.11,SE,134,2.0,4.0,70,0.00,,,0.00,Wunderground v.1.15,2013-02-16 19:44:00,
2013-02-16 13:50:00,30.7,22.4,30.11,SSE,150,3.0,3.0,71,0.00,,,0.00,Wunderground v.1.15,2013-02-16 19:50:00,
2013-02-16 13:52:00,30.8,22.5,30.11,SE,142,3.0,5.0,71,0.00,,,0.00,Wunderground v.1.15,2013-02-16 19:52:00,
2013-02-16 13:56:00,30.8,21.8,30.11,SSE,158,3.0,5.0,69,0.00,,,0.00,Wunderground v.1.15,2013-02-16 19:56:00,
2013-02-16 13:58:00,30.9,21.9,30.11,ESE,103,3.0,5.0,69,0.00,,,0.00,Wunderground v.1.15,2013-02-16 19:58:00,
2013-02-16 14:00:00,31.2,22.2,30.11,SSE,150,2.0,5.0,69,0.00,,,0.00,Wunderground v.1.15,2013-02-16 20:00:00,
2013-02-16 14:02:00,31.2,21.9,30.11,ESE,109,2.0,5.0,68,0.00,,,0.00,Wunderground v.1.15,2013-02-16 20:02:00,
2013-02-16 14:06:00,31.2,21.2,30.11,SSE,153,2.0,5.0,66,0.00,,,0.00,Wunderground v.1.15,2013-02-16 20:06:00,
2013-02-16 14:10:00,31.3,22.0,30.10,SSE,155,2.0,2.0,68,0.00,,,0.00,Wunderground v.1.15,2013-02-16 20:10:00,
2013-02-16 14:12:00,31.6,22.2,30.10,NNE,33,2.0,5.0,68,0.00,,,0.00,Wunderground v.1.15,2013-02-16 20:12:00,
2013-02-16 14:14:00,31.7,21.6,30.10,SE,135,2.0,5.0,66,0.00,,,0.00,Wunderground v.1.15,2013-02-16 20:14:00,
2013-02-16 14:18:00,31.8,21.7,30.10,SSW,193,2.0,5.0,66,0.00,,,0.00,Wunderground v.1.15,2013-02-16 20:18:00,
2013-02-16 14:20:00,31.9,20.7,30.10,SE,132,2.0,5.0,63,0.00,,,0.00,Wunderground v.1.15,2013-02-16 20:20:00,
2013-02-16 14:22:00,32.1,22.0,30.10,SE,129,2.0,5.0,66,0.00,,,0.00,Wunderground v.1.15,2013-02-16 20:22:00,
2013-02-16 14:26:00,32.4,21.2,30.09,SSE,154,2.0,5.0,63,0.00,,,0.00,Wunderground v.1.15,2013-02-16 20:26:00,
2013-02-16 14:30:00,32.6,21.8,30.09,SSE,152,2.0,2.0,64,0.00,,,0.00,Wunderground v.1.15,2013-02-16 20:30:00,
2013-02-16 14:32:00,32.7,21.1,30.09,ESE,120,2.0,5.0,62,0.00,,,0.00,Wunderground v.1.15,2013-02-16 20:32:00,
2013-02-16 14:34:00,32.7,21.9,30.09,SSE,148,2.0,5.0,64,0.00,,,0.00,Wunderground v.1.15,2013-02-16 20:34:00,
2013-02-16 14:38:00,32.7,21.9,30.09,SE,143,2.0,5.0,64,0.00,,,0.00,Wunderground v.1.15,2013-02-16 20:38:00,
2013-02-16 14:40:00,32.8,21.6,30.09,SE,131,2.0,5.0,63,0.00,,,0.00,Wunderground v.1.15,2013-02-16 20:40:00,
2013-02-16 14:44:00,32.8,22.0,30.08,SE,136,2.0,5.0,64,0.00,,,0.00,Wunderground v.1.15,2013-02-16 20:44:00,
2013-02-16 14:46:00,32.7,21.5,30.08,SSE,156,2.0,5.0,63,0.00,,,0.00,Wunderground v.1.15,2013-02-16 20:46:00,
2013-02-16 14:50:00,32.7,21.5,30.08,SE,146,3.0,3.0,63,0.00,,,0.00,Wunderground v.1.15,2013-02-16 20:50:00,
2013-02-16 14:54:00,32.7,22.2,30.08,SE,136,3.0,5.0,65,0.00,,,0.00,Wunderground v.1.15,2013-02-16 20:54:00,
2013-02-16 14:56:00,32.6,22.1,30.08,SSW,203,3.0,5.0,65,0.00,,,0.00,Wunderground v.1.15,2013-02-16 20:56:00,
2013-02-16 15:02:00,32.4,22.3,30.08,SSE,148,3.0,5.0,66,0.00,,,0.00,Wunderground v.1.15,2013-02-16 21:02:00,
2013-02-16 15:04:00,32.5,22.0,30.08,SE,138,2.0,5.0,65,0.00,,,0.00,Wunderground v.1.15,2013-02-16 21:04:00,
2013-02-16 15:08:00,32.7,22.2,30.08,ESE,113,2.0,5.0,65,0.00,,,0.00,Wunderground v.1.15,2013-02-16 21:08:00,
2013-02-16 15:12:00,32.4,21.6,30.08,SSE,150,2.0,5.0,64,0.00,,,0.00,Wunderground v.1.15,2013-02-16 21:12:00,
2013-02-16 15:14:00,32.3,22.2,30.08,SW,226,2.0,5.0,66,0.00,,,0.00,Wunderground v.1.15,2013-02-16 21:14:00,
2013-02-16 15:16:00,32.4,23.0,30.08,South,181,2.0,5.0,68,0.00,,,0.00,Wunderground v.1.15,2013-02-16 21:16:00,
2013-02-16 15:18:00,32.7,23.3,30.08,West,266,2.0,5.0,68,0.00,,,0.00,Wunderground v.1.15,2013-02-16 21:18:00,
2013-02-16 15:20:00,32.8,23.0,30.08,SSE,155,2.0,2.0,67,0.00,,,0.00,Wunderground v.1.15,2013-02-16 21:20:00,
2013-02-16 15:22:00,32.9,23.1,30.08,SSE,156,2.0,5.0,67,0.00,,,0.00,Wunderground v.1.15,2013-02-16 21:22:00,
2013-02-16 15:25:00,33.0,22.9,30.08,ENE,58,2.0,5.0,66,0.00,,,0.00,Wunderground v.1.15,2013-02-16 21:25:00,
2013-02-16 15:27:00,32.9,22.4,30.08,East,81,2.0,5.0,65,0.00,,,0.00,Wunderground v.1.15,2013-02-16 21:27:00,
2013-02-16 15:34:00,33.0,22.5,30.08,ESE,121,2.0,5.0,65,0.00,,,0.00,Wunderground v.1.15,2013-02-16 21:34:00,
2013-02-16 15:40:00,33.3,23.9,30.08,SSE,155,3.0,5.0,68,0.00,,,0.00,Wunderground v.1.15,2013-02-16 21:40:00,
2013-02-16 15:42:00,33.4,24.0,30.08,SSE,158,3.0,5.0,68,0.00,,,0.00,Wunderground v.1.15,2013-02-16 21:42:00,
2013-02-16 15:44:00,33.5,23.7,30.08,SSW,205,3.0,5.0,67,0.00,,,0.00,Wunderground v.1.15,2013-02-16 21:44:00,
2013-02-16 15:46:00,33.7,24.3,30.08,NNE,23,2.0,5.0,68,0.00,,,0.00,Wunderground v.1.15,2013-02-16 21:46:00,
2013-02-16 15:47:00,33.9,24.4,30.08,South,181,2.0,5.0,68,0.00,,,0.00,Wunderground v.1.15,2013-02-16 21:47:00,
2013-02-16 15:49:00,33.9,24.1,30.08,SSW,211,2.0,5.0,67,0.00,,,0.00,Wunderground v.1.15,2013-02-16 21:49:00,
2013-02-16 15:52:00,33.9,24.4,30.08,SW,224,2.0,5.0,68,0.00,,,0.00,Wunderground v.1.15,2013-02-16 21:52:00,
2013-02-16 15:54:00,33.9,24.1,30.08,NNW,335,2.0,5.0,67,0.00,,,0.00,Wunderground v.1.15,2013-02-16 21:54:00,
2013-02-16 15:56:00,33.7,23.9,30.08,SW,219,2.0,5.0,67,0.00,,,0.00,Wunderground v.1.15,2013-02-16 21:56:00,
2013-02-16 16:00:00,33.6,23.8,30.08,SSE,165,2.0,5.0,67,0.00,,,0.00,Wunderground v.1.15,2013-02-16 22:00:00,
2013-02-16 16:02:00,33.6,24.2,30.08,SSE,166,2.0,5.0,68,0.00,,,0.00,Wunderground v.1.15,2013-02-16 22:02:00,
2013-02-16 16:08:00,33.7,24.3,30.08,NW,324,2.0,5.0,68,0.00,,,0.00,Wunderground v.1.15,2013-02-16 22:08:00,
2013-02-16 16:09:00,33.8,24.4,30.08,NNW,332,2.0,5.0,68,0.00,,,0.00,Wunderground v.1.15,2013-02-16 22:09:00,
2013-02-16 16:14:00,33.5,24.1,30.08,North,1,2.0,5.0,68,0.00,,,0.00,Wunderground v.1.15,2013-02-16 22:14:00,
2013-02-16 16:18:00,33.3,24.6,30.08,SSE,162,2.0,5.0,70,0.00,,,0.00,Wunderground v.1.15,2013-02-16 22:18:00,
2013-02-16 16:20:00,33.3,24.6,30.07,SE,141,2.0,5.0,70,0.00,,,0.00,Wunderground v.1.15,2013-02-16 22:20:00,
2013-02-16 16:26:00,33.3,24.2,30.07,SSE,166,3.0,5.0,69,0.00,,,0.00,Wunderground v.1.15,2013-02-16 22:26:00,
2013-02-16 16:28:00,33.3,24.2,30.07,SW,226,3.0,5.0,69,0.00,,,0.00,Wunderground v.1.15,2013-02-16 22:28:00,
2013-02-16 16:31:00,33.3,23.9,30.07,SSE,160,3.0,5.0,68,0.00,,,0.00,Wunderground v.1.15,2013-02-16 22:31:00,
2013-02-16 16:34:00,33.3,24.2,30.08,South,177,3.0,5.0,69,0.00,,,0.00,Wunderground v.1.15,2013-02-16 22:34:00,
2013-02-16 16:36:00,33.2,24.1,30.07,SSE,167,3.0,5.0,69,0.00,,,0.00,Wunderground v.1.15,2013-02-16 22:36:00,
2013-02-16 16:42:00,33.1,24.0,30.08,SSE,149,3.0,5.0,69,0.00,,,0.00,Wunderground v.1.15,2013-02-16 22:42:00,
2013-02-16 16:44:00,33.0,23.9,30.08,SSE,150,3.0,5.0,69,0.00,,,0.00,Wunderground v.1.15,2013-02-16 22:44:00,
2013-02-16 16:48:00,32.9,23.8,30.08,South,179,3.0,5.0,69,0.00,,,0.00,Wunderground v.1.15,2013-02-16 22:48:00,
2013-02-16 16:53:00,32.5,23.8,30.08,SE,139,3.0,5.0,70,0.00,,,0.00,Wunderground v.1.15,2013-02-16 22:53:00,
2013-02-16 16:56:00,32.1,23.4,30.08,SE,141,3.0,5.0,70,0.00,,,0.00,Wunderground v.1.15,2013-02-16 22:56:00,
2013-02-16 16:58:00,31.7,23.0,30.08,ESE,110,3.0,5.0,70,0.00,,,0.00,Wunderground v.1.15,2013-02-16 22:58:00,
2013-02-16 17:02:00,31.3,23.6,30.08,SSE,160,3.0,5.0,73,0.00,,,0.00,Wunderground v.1.15,2013-02-16 23:02:00,
2013-02-16 17:04:00,31.1,23.1,30.08,SSE,155,3.0,5.0,72,0.00,,,0.00,Wunderground v.1.15,2013-02-16 23:04:00,
2013-02-16 17:06:00,31.0,23.0,30.08,SE,142,3.0,5.0,72,0.00,,,0.00,Wunderground v.1.15,2013-02-16 23:06:00,
2013-02-16 17:08:00,30.8,22.8,30.08,SSE,155,3.0,5.0,72,0.00,,,0.00,Wunderground v.1.15,2013-02-16 23:08:00,
2013-02-16 17:14:00,30.5,23.2,30.08,SW,215,3.0,5.0,74,0.00,,,0.00,Wunderground v.1.15,2013-02-16 23:14:00,
2013-02-16 17:18:00,30.6,23.6,30.08,SE,142,3.0,5.0,75,0.00,,,0.00,Wunderground v.1.15,2013-02-16 23:18:00,
2013-02-16 17:20:00,30.6,23.6,30.08,South,172,3.0,3.0,75,0.00,,,0.00,Wunderground v.1.15,2013-02-16 23:20:00,
2013-02-16 17:26:00,31.0,24.0,30.08,SSE,148,2.0,5.0,75,0.00,,,0.00,Wunderground v.1.15,2013-02-16 23:26:00,
2013-02-16 17:28:00,31.1,23.8,30.08,SSE,147,2.0,5.0,74,0.00,,,0.00,Wunderground v.1.15,2013-02-16 23:28:00,
2013-02-16 17:30:00,31.0,24.0,30.08,SSW,207,2.0,2.0,75,0.00,,,0.00,Wunderground v.1.15,2013-02-16 23:30:00,
2013-02-16 17:32:00,30.9,23.9,30.08,ESE,108,2.0,5.0,75,0.00,,,0.00,Wunderground v.1.15,2013-02-16 23:32:00,
2013-02-16 17:36:00,30.4,23.4,30.08,SSW,210,2.0,5.0,75,0.00,,,0.00,Wunderground v.1.15,2013-02-16 23:36:00,
2013-02-16 17:42:00,29.8,23.2,30.08,WSW,243,2.0,5.0,76,0.00,,,0.00,Wunderground v.1.15,2013-02-16 23:42:00,
2013-02-16 17:44:00,29.6,23.0,30.08,South,181,2.0,5.0,76,0.00,,,0.00,Wunderground v.1.15,2013-02-16 23:44:00,
2013-02-16 17:48:00,29.3,23.0,30.08,SW,226,2.0,5.0,77,0.00,,,0.00,Wunderground v.1.15,2013-02-16 23:48:00,
2013-02-16 17:50:00,29.1,23.1,30.08,SW,226,2.0,5.0,78,0.00,,,0.00,Wunderground v.1.15,2013-02-16 23:50:00,
2013-02-16 17:54:00,28.8,23.1,30.08,NNW,333,2.0,5.0,79,0.00,,,0.00,Wunderground v.1.15,2013-02-16 23:54:00,
2013-02-16 17:56:00,28.7,23.0,30.08,West,263,2.0,5.0,79,0.00,,,0.00,Wunderground v.1.15,2013-02-16 23:56:00,
2013-02-16 18:00:00,28.5,22.8,30.08,North,3,1.0,5.0,79,0.00,,,0.00,Wunderground v.1.15,2013-02-17 00:00:00,
2013-02-16 18:02:00,28.3,22.9,30.08,NNE,25,1.0,5.0,80,0.00,,,0.00,Wunderground v.1.15,2013-02-17 00:02:00,
2013-02-16 18:04:00,28.2,23.1,30.08,WSW,249,1.0,5.0,81,0.00,,,0.00,Wunderground v.1.15,2013-02-17 00:04:00,
2013-02-16 18:06:00,28.1,23.0,30.08,NNW,340,1.0,5.0,81,0.00,,,0.00,Wunderground v.1.15,2013-02-17 00:06:00,
2013-02-16 18:12:00,27.7,22.6,30.08,WSW,249,1.0,5.0,81,0.00,,,0.00,Wunderground v.1.15,2013-02-17 00:12:00,
2013-02-16 18:14:00,27.6,22.8,30.08,WSW,248,1.0,5.0,82,0.00,,,0.00,Wunderground v.1.15,2013-02-17 00:14:00,
2013-02-16 18:20:00,27.3,22.5,30.09,North,1,1.0,5.0,82,0.00,,,0.00,Wunderground v.1.15,2013-02-17 00:20:00,
2013-02-16 18:22:00,27.3,22.5,30.08,WSW,250,1.0,5.0,82,0.00,,,0.00,Wunderground v.1.15,2013-02-17 00:22:00,
2013-02-16 18:26:00,27.1,22.6,30.09,NNE,20,1.0,5.0,83,0.00,,,0.00,Wunderground v.1.15,2013-02-17 00:26:00,
2013-02-16 18:28:00,27.0,22.5,30.09,NNW,342,1.0,5.0,83,0.00,,,0.00,Wunderground v.1.15,2013-02-17 00:28:00,
2013-02-16 18:34:00,26.8,22.3,30.09,WSW,243,1.0,5.0,83,0.00,,,0.00,Wunderground v.1.15,2013-02-17 00:34:00,
2013-02-16 18:38:00,26.7,22.5,30.09,West,276,1.0,5.0,84,0.00,,,0.00,Wunderground v.1.15,2013-02-17 00:38:00,
2013-02-16 18:44:00,26.5,22.6,30.09,South,191,1.0,5.0,85,0.00,,,0.00,Wunderground v.1.15,2013-02-17 00:44:00,
2013-02-16 18:46:00,26.4,22.5,30.09,West,276,1.0,5.0,85,0.00,,,0.00,Wunderground v.1.15,2013-02-17 00:46:00,
2013-02-16 18:50:00,26.3,22.4,30.09,SSW,211,1.0,5.0,85,0.00,,,0.00,Wunderground v.1.15,2013-02-17 00:50:00,
2013-02-16 18:52:00,26.2,22.3,30.09,South,187,1.0,5.0,85,0.00,,,0.00,Wunderground v.1.15,2013-02-17 00:52:00,
2013-02-16 18:56:00,26.2,22.6,30.09,SSW,210,2.0,5.0,86,0.00,,,0.00,Wunderground v.1.15,2013-02-17 00:56:00,
2013-02-16 19:00:00,26.1,22.5,30.09,SSE,162,2.0,5.0,86,0.00,,,0.00,Wunderground v.1.15,2013-02-17 01:00:00,
2013-02-16 19:02:00,26.1,22.5,30.08,South,170,2.0,5.0,86,0.00,,,0.00,Wunderground v.1.15,2013-02-17 01:02:00,
2013-02-16 19:06:00,26.1,22.2,30.08,West,271,2.0,5.0,85,0.00,,,0.00,Wunderground v.1.15,2013-02-17 01:06:00,
2013-02-16 19:08:00,26.0,22.1,30.08,West,270,2.0,5.0,85,0.00,,,0.00,Wunderground v.1.15,2013-02-17 01:08:00,
2013-02-16 19:12:00,26.0,22.1,30.08,South,191,2.0,5.0,85,0.00,,,0.00,Wunderground v.1.15,2013-02-17 01:12:00,
2013-02-16 19:18:00,25.9,22.3,30.08,South,173,2.0,5.0,86,0.00,,,0.00,Wunderground v.1.15,2013-02-17 01:18:00,
2013-02-16 19:20:00,25.8,21.9,30.08,South,179,2.0,5.0,85,0.00,,,0.00,Wunderground v.1.15,2013-02-17 01:20:00,
2013-02-16 19:24:00,25.7,22.1,30.08,SSW,195,2.0,5.0,86,0.00,,,0.00,Wunderground v.1.15,2013-02-17 01:24:00,
2013-02-16 19:26:00,25.6,22.0,30.08,West,264,2.0,5.0,86,0.00,,,0.00,Wunderground v.1.15,2013-02-17 01:26:00,
2013-02-16 19:32:00,25.5,21.9,30.08,South,187,2.0,5.0,86,0.00,,,0.00,Wunderground v.1.15,2013-02-17 01:32:00,
2013-02-16 19:36:00,25.3,21.7,30.08,SSE,150,2.0,5.0,86,0.00,,,0.00,Wunderground v.1.15,2013-02-17 01:36:00,
2013-02-16 19:38:00,25.3,21.7,30.08,SW,214,2.0,5.0,86,0.00,,,0.00,Wunderground v.1.15,2013-02-17 01:38:00,
2013-02-16 19:42:00,25.2,21.6,30.08,West,274,2.0,5.0,86,0.00,,,0.00,Wunderground v.1.15,2013-02-17 01:42:00,
2013-02-16 19:44:00,25.2,21.6,30.08,SSE,150,2.0,5.0,86,0.00,,,0.00,Wunderground v.1.15,2013-02-17 01:44:00,
2013-02-16 19:48:00,25.0,21.4,30.08,SSW,205,2.0,5.0,86,0.00,,,0.00,Wunderground v.1.15,2013-02-17 01:48:00,
2013-02-16 19:54:00,24.9,21.6,30.08,SE,135,2.0,5.0,87,0.00,,,0.00,Wunderground v.1.15,2013-02-17 01:54:00,
2013-02-16 20:00:00,24.8,21.2,30.08,SSE,148,2.0,5.0,86,0.00,,,0.00,Wunderground v.1.15,2013-02-17 02:00:00,
2013-02-16 20:02:00,24.7,21.1,30.08,SE,136,3.0,5.0,86,0.00,,,0.00,Wunderground v.1.15,2013-02-17 02:02:00,
2013-02-16 20:06:00,24.6,20.7,30.08,SE,141,4.0,5.0,85,0.00,,,0.00,Wunderground v.1.15,2013-02-17 02:06:00,
2013-02-16 20:10:00,24.5,20.9,30.08,SE,125,4.0,5.0,86,0.00,,,0.00,Wunderground v.1.15,2013-02-17 02:10:00,
2013-02-16 20:14:00,24.4,20.8,30.08,SE,141,4.0,5.0,86,0.00,,,0.00,Wunderground v.1.15,2013-02-17 02:14:00,
2013-02-16 20:18:00,24.4,21.1,30.08,SE,138,4.0,5.0,87,0.00,,,0.00,Wunderground v.1.15,2013-02-17 02:18:00,
2013-02-16 20:20:00,24.4,21.1,30.08,SE,125,4.0,5.0,87,0.00,,,0.00,Wunderground v.1.15,2013-02-17 02:20:00,
2013-02-16 20:24:00,24.2,20.9,30.08,SSE,155,4.0,5.0,87,0.00,,,0.00,Wunderground v.1.15,2013-02-17 02:24:00,
2013-02-16 20:28:00,24.1,20.8,30.07,SE,139,4.0,5.0,87,0.00,,,0.00,Wunderground v.1.15,2013-02-17 02:28:00,
2013-02-16 20:30:00,24.1,21.1,30.07,SE,143,4.0,5.0,88,0.00,,,0.00,Wunderground v.1.15,2013-02-17 02:30:00,
2013-02-16 20:32:00,24.1,21.1,30.07,SE,136,4.0,5.0,88,0.00,,,0.00,Wunderground v.1.15,2013-02-17 02:32:00,
2013-02-16 20:36:00,24.1,21.1,30.07,SE,131,4.0,5.0,88,0.00,,,0.00,Wunderground v.1.15,2013-02-17 02:36:00,
2013-02-16 20:38:00,24.1,21.1,30.07,SE,131,4.0,5.0,88,0.00,,,0.00,Wunderground v.1.15,2013-02-17 02:38:00,
2013-02-16 20:42:00,24.0,21.0,30.07,SSE,153,4.0,5.0,88,0.00,,,0.00,Wunderground v.1.15,2013-02-17 02:42:00,
2013-02-16 20:46:00,23.9,20.9,30.07,SE,128,4.0,5.0,88,0.00,,,0.00,Wunderground v.1.15,2013-02-17 02:46:00,
2013-02-16 20:48:00,23.8,20.8,30.07,SE,138,4.0,5.0,88,0.00,,,0.00,Wunderground v.1.15,2013-02-17 02:48:00,
2013-02-16 20:54:00,23.7,20.7,30.07,SE,141,4.0,5.0,88,0.00,,,0.00,Wunderground v.1.15,2013-02-17 02:54:00,
2013-02-16 20:58:00,23.7,20.7,30.07,ESE,112,3.0,5.0,88,0.00,,,0.00,Wunderground v.1.15,2013-02-17 02:58:00,
2013-02-16 21:00:00,23.6,20.8,30.07,SE,135,3.0,5.0,89,0.00,,,0.00,Wunderground v.1.15,2013-02-17 03:00:00,
2013-02-16 21:08:00,23.6,20.8,30.07,SSE,153,3.0,5.0,89,0.00,,,0.00,Wunderground v.1.15,2013-02-17 03:08:00,
2013-02-16 21:12:00,23.6,20.8,30.07,SE,132,3.0,5.0,89,0.00,,,0.00,Wunderground v.1.15,2013-02-17 03:12:00,
2013-02-16 21:18:00,23.5,20.7,30.07,SE,138,3.0,5.0,89,0.00,,,0.00,Wunderground v.1.15,2013-02-17 03:18:00,
2013-02-16 21:22:00,23.4,20.6,30.07,ESE,120,3.0,5.0,89,0.00,,,0.00,Wunderground v.1.15,2013-02-17 03:22:00,
2013-02-16 21:24:00,23.3,20.5,30.07,SE,128,3.0,5.0,89,0.00,,,0.00,Wunderground v.1.15,2013-02-17 03:24:00,
2013-02-16 21:30:00,23.1,20.6,30.07,SE,124,3.0,5.0,90,0.00,,,0.00,Wunderground v.1.15,2013-02-17 03:30:00,
2013-02-16 21:32:00,23.0,20.5,30.07,SE,128,3.0,5.0,90,0.00,,,0.00,Wunderground v.1.15,2013-02-17 03:32:00,
2013-02-16 21:34:00,23.0,20.5,30.07,SE,143,3.0,5.0,90,0.00,,,0.00,Wunderground v.1.15,2013-02-17 03:34:00,
2013-02-16 21:36:00,23.0,20.5,30.07,SE,141,3.0,5.0,90,0.00,,,0.00,Wunderground v.1.15,2013-02-17 03:36:00,
2013-02-16 21:40:00,22.9,20.4,30.07,SE,133,3.0,5.0,90,0.00,,,0.00,Wunderground v.1.15,2013-02-17 03:40:00,
2013-02-16 21:46:00,22.8,20.3,30.07,SE,135,4.0,5.0,90,0.00,,,0.00,Wunderground v.1.15,2013-02-17 03:46:00,
2013-02-16 21:48:00,22.9,20.7,30.07,SE,129,4.0,5.0,91,0.00,,,0.00,Wunderground v.1.15,2013-02-17 03:48:00,
2013-02-16 21:54:00,22.7,20.5,30.07,SE,138,4.0,5.0,91,0.00,,,0.00,Wunderground v.1.15,2013-02-17 03:54:00,
2013-02-16 21:58:00,22.6,20.4,30.07,SE,128,4.0,5.0,91,0.00,,,0.00,Wunderground v.1.15,2013-02-17 03:58:00,
2013-02-16 22:00:00,22.6,20.4,30.07,SE,129,4.0,5.0,91,0.00,,,0.00,Wunderground v.1.15,2013-02-17 04:00:00,
2013-02-16 22:02:00,22.5,20.3,30.07,SE,129,4.0,5.0,91,0.00,,,0.00,Wunderground v.1.15,2013-02-17 04:02:00,
2013-02-16 22:06:00,22.4,20.2,30.07,SE,135,4.0,5.0,91,0.00,,,0.00,Wunderground v.1.15,2013-02-17 04:06:00,
2013-02-16 22:10:00,22.4,20.2,30.07,SE,131,4.0,5.0,91,0.00,,,0.00,Wunderground v.1.15,2013-02-17 04:10:00,
2013-02-16 22:12:00,22.3,20.1,30.07,SE,132,4.0,5.0,91,0.00,,,0.00,Wunderground v.1.15,2013-02-17 04:12:00,
2013-02-16 22:14:00,22.3,20.1,30.07,SE,136,4.0,5.0,91,0.00,,,0.00,Wunderground v.1.15,2013-02-17 04:14:00,
2013-02-16 22:20:00,22.2,20.2,30.07,SE,129,4.0,5.0,92,0.00,,,0.00,Wunderground v.1.15,2013-02-17 04:20:00,
2013-02-16 22:24:00,22.1,20.1,30.06,SE,129,4.0,5.0,92,0.00,,,0.00,Wunderground v.1.15,2013-02-17 04:24:00,
2013-02-16 22:26:00,22.1,20.1,30.07,ESE,121,4.0,5.0,92,0.00,,,0.00,Wunderground v.1.15,2013-02-17 04:26:00,
2013-02-16 22:32:00,22.1,20.1,30.06,SE,130,4.0,5.0,92,0.00,,,0.00,Wunderground v.1.15,2013-02-17 04:32:00,
2013-02-16 22:34:00,22.2,20.2,30.06,SE,129,4.0,5.0,92,0.00,,,0.00,Wunderground v.1.15,2013-02-17 04:34:00,
2013-02-16 22:36:00,22.2,20.2,30.06,SSE,148,4.0,5.0,92,0.00,,,0.00,Wunderground v.1.15,2013-02-17 04:36:00,
2013-02-16 22:40:00,22.1,20.1,30.06,SE,143,4.0,5.0,92,0.00,,,0.00,Wunderground v.1.15,2013-02-17 04:40:00,
2013-02-16 22:42:00,22.1,20.1,30.07,SE,125,4.0,5.0,92,0.00,,,0.00,Wunderground v.1.15,2013-02-17 04:42:00,
2013-02-16 22:46:00,22.1,20.1,30.06,SE,132,4.0,5.0,92,0.00,,,0.00,Wunderground v.1.15,2013-02-17 04:46:00,
2013-02-16 22:48:00,22.1,20.1,30.06,SE,141,4.0,5.0,92,0.00,,,0.00,Wunderground v.1.15,2013-02-17 04:48:00,
2013-02-16 22:52:00,22.2,20.2,30.06,SE,134,5.0,5.0,92,0.00,,,0.00,Wunderground v.1.15,2013-02-17 04:52:00,
2013-02-16 22:56:00,22.1,20.1,30.06,SE,135,5.0,5.0,92,0.00,,,0.00,Wunderground v.1.15,2013-02-17 04:56:00,
2013-02-16 22:58:00,22.1,20.1,30.06,SE,133,5.0,5.0,92,0.00,,,0.00,Wunderground v.1.15,2013-02-17 04:58:00,
2013-02-16 23:00:00,22.1,20.1,30.06,SE,133,5.0,5.0,92,0.00,,,0.00,Wunderground v.1.15,2013-02-17 05:00:00,
2013-02-16 23:02:00,22.1,20.1,30.06,SE,138,5.0,5.0,92,0.00,,,0.00,Wunderground v.1.15,2013-02-17 05:02:00,
2013-02-16 23:04:00,22.1,20.1,30.06,SE,128,5.0,5.0,92,0.00,,,0.00,Wunderground v.1.15,2013-02-17 05:04:00,
2013-02-16 23:10:00,22.1,20.1,30.05,SSE,148,5.0,5.0,92,0.00,,,0.00,Wunderground v.1.15,2013-02-17 05:10:00,
2013-02-16 23:12:00,22.1,20.1,30.06,SE,127,5.0,5.0,92,0.00,,,0.00,Wunderground v.1.15,2013-02-17 05:12:00,
2013-02-16 23:14:00,22.1,20.1,30.06,SE,142,5.0,5.0,92,0.00,,,0.00,Wunderground v.1.15,2013-02-17 05:14:00,
2013-02-16 23:16:00,22.1,20.1,30.06,SE,136,5.0,5.0,92,0.00,,,0.00,Wunderground v.1.15,2013-02-17 05:16:00,
2013-02-16 23:18:00,22.0,20.0,30.06,SE,139,5.0,5.0,92,0.00,,,0.00,Wunderground v.1.15,2013-02-17 05:18:00,
2013-02-16 23:20:00,22.0,20.0,30.06,SE,132,5.0,5.0,92,0.00,,,0.00,Wunderground v.1.15,2013-02-17 05:20:00,
2013-02-16 23:24:00,21.9,19.9,30.05,SE,129,5.0,6.0,92,0.00,,,0.00,Wunderground v.1.15,2013-02-17 05:24:00,
2013-02-16 23:30:00,21.7,19.7,30.05,SE,135,5.0,5.0,92,0.00,,,0.00,Wunderground v.1.15,2013-02-17 05:30:00,
2013-02-16 23:32:00,21.7,19.7,30.05,SE,134,5.0,5.0,92,0.00,,,0.00,Wunderground v.1.15,2013-02-17 05:32:00,
2013-02-16 23:38:00,21.6,19.6,30.05,ESE,122,4.0,5.0,92,0.00,,,0.00,Wunderground v.1.15,2013-02-17 05:38:00,
2013-02-16 23:40:00,21.6,19.6,30.05,SE,137,4.0,4.0,92,0.00,,,0.00,Wunderground v.1.15,2013-02-17 05:40:00,
2013-02-16 23:42:00,21.6,19.9,30.05,SE,137,4.0,5.0,93,0.00,,,0.00,Wunderground v.1.15,2013-02-17 05:42:00,
2013-02-16 23:44:00,21.6,19.9,30.05,SE,128,4.0,5.0,93,0.00,,,0.00,Wunderground v.1.15,2013-02-17 05:44:00,
2013-02-16 23:46:00,21.6,19.9,30.05,SE,135,4.0,5.0,93,0.00,,,0.00,Wunderground v.1.15,2013-02-17 05:46:00,
2013-02-16 23:52:00,21.6,19.9,30.05,SE,134,4.0,5.0,93,0.00,,,0.00,Wunderground v.1.15,2013-02-17 05:52:00,
2013-02-16 23:53:00,21.6,19.9,30.05,SE,131,4.0,5.0,93,0.00,,,0.00,Wunderground v.1.15,2013-02-17 05:53:00,
2013-02-16 23:58:00,21.7,20.0,30.05,SE,132,4.0,5.0,93,0.00,,,0.00,Wunderground v.1.15,2013-02-17 05:58:00,